createdAt,value
2023-12-30T00:00:37.941Z,17.30
2023-12-30T00:03:05.193Z,23.25
2023-12-30T00:05:32.275Z,21.52
2023-12-30T00:07:59.340Z,22.52
2023-12-30T00:10:26.558Z,21.42
2023-12-30T00:12:53.737Z,28.00
2023-12-30T00:15:22.104Z,29.95
2023-12-30T00:17:49.322Z,25.45
2023-12-30T00:20:16.345Z,31.42
2023-12-30T00:22:43.384Z,27.73
2023-12-30T00:25:11.490Z,30.70
2023-12-30T00:27:38.675Z,32.90
2023-12-30T00:30:06.618Z,29.17
2023-12-30T00:32:33.992Z,29.17
2023-12-30T00:35:01.303Z,27.15
2023-12-30T00:37:28.410Z,27.57
2023-12-30T00:39:55.382Z,29.15
2023-12-30T00:42:22.516Z,25.75
2023-12-30T00:44:49.526Z,25.92
2023-12-30T00:47:16.343Z,24.35
2023-12-30T00:49:43.401Z,25.30
2023-12-30T00:52:11.346Z,23.23
2023-12-30T00:54:44.630Z,22.08
2023-12-30T00:57:17.568Z,20.88
2023-12-30T00:59:44.577Z,24.27
2023-12-30T01:02:11.572Z,24.33
2023-12-30T01:04:38.744Z,25.33
2023-12-30T01:07:05.617Z,21.85
2023-12-30T01:09:32.764Z,22.63
2023-12-30T01:11:59.778Z,17.38
2023-12-30T01:14:26.540Z,27.03
2023-12-30T01:16:53.319Z,19.98
2023-12-30T01:19:20.180Z,20.38
2023-12-30T01:21:47.792Z,22.50
2023-12-30T01:24:14.664Z,22.40
2023-12-30T01:26:41.651Z,19.90
2023-12-30T01:29:08.892Z,20.95
2023-12-30T01:31:35.989Z,22.83
2023-12-30T01:34:03.182Z,22.27
2023-12-30T01:36:30.195Z,21.67
2023-12-30T01:38:57.278Z,23.73
2023-12-30T01:41:24.185Z,23.27
2023-12-30T01:43:51.261Z,20.95
2023-12-30T01:46:18.285Z,24.70
2023-12-30T01:48:45.764Z,22.25
2023-12-30T01:51:24.372Z,22.43
2023-12-30T01:53:53.831Z,24.70
2023-12-30T01:56:21.887Z,22.83
2023-12-30T01:58:53.737Z,19.42
2023-12-30T02:01:23.856Z,21.65
2023-12-30T02:03:51.193Z,21.27
2023-12-30T02:06:18.310Z,19.65
2023-12-30T02:08:45.343Z,24.35
2023-12-30T02:11:13.294Z,20.33
2023-12-30T02:13:43.926Z,23.17
2023-12-30T02:16:11.985Z,23.57
2023-12-30T02:18:39.434Z,25.48
2023-12-30T02:21:06.616Z,23.05
2023-12-30T02:23:33.607Z,23.27
2023-12-30T02:26:00.380Z,24.08
2023-12-30T02:28:27.374Z,24.10
2023-12-30T02:30:54.485Z,21.05
2023-12-30T02:33:21.571Z,24.83
2023-12-30T02:35:48.399Z,26.23
2023-12-30T02:38:15.480Z,21.38
2023-12-30T02:40:42.331Z,19.20
2023-12-30T02:43:09.461Z,19.75
2023-12-30T02:45:36.804Z,17.95
2023-12-30T02:48:04.399Z,18.67
2023-12-30T02:50:31.210Z,19.77
2023-12-30T02:52:58.317Z,15.93
2023-12-30T02:55:25.408Z,17.77
2023-12-30T02:57:52.470Z,16.98
2023-12-30T03:00:19.845Z,22.20
2023-12-30T03:02:47.272Z,18.65
2023-12-30T03:05:14.734Z,17.60
2023-12-30T03:07:41.960Z,16.02
2023-12-30T03:10:09.885Z,21.70
2023-12-30T03:12:37.034Z,21.83
2023-12-30T03:15:04.028Z,24.98
2023-12-30T03:17:31.132Z,21.77
2023-12-30T03:19:58.299Z,21.15
2023-12-30T03:22:25.958Z,23.88
2023-12-30T03:24:53.096Z,21.25
2023-12-30T03:27:20.240Z,21.83
2023-12-30T03:29:47.315Z,28.40
2023-12-30T03:32:14.921Z,19.30
2023-12-30T03:34:42.039Z,23.30
2023-12-30T03:37:09.074Z,24.50
2023-12-30T03:39:36.485Z,22.48
2023-12-30T03:42:03.662Z,24.90
2023-12-30T03:44:30.727Z,25.13
2023-12-30T03:46:57.798Z,29.05
2023-12-30T03:49:25.180Z,28.10
2023-12-30T03:51:52.427Z,33.45
2023-12-30T03:54:19.386Z,26.27
2023-12-30T03:56:48.367Z,23.58
2023-12-30T03:59:15.491Z,25.60
2023-12-30T04:01:44.172Z,25.17
2023-12-30T04:04:11.711Z,25.13
2023-12-30T04:06:38.801Z,25.93
2023-12-30T04:09:05.665Z,24.17
2023-12-30T04:11:32.458Z,28.85
2023-12-30T04:13:59.574Z,22.58
2023-12-30T04:16:26.672Z,25.42
2023-12-30T04:18:53.986Z,27.10
2023-12-30T04:21:21.217Z,26.73
2023-12-30T04:23:48.315Z,25.98
2023-12-30T04:26:15.343Z,24.67
2023-12-30T04:28:42.399Z,22.15
2023-12-30T04:31:09.506Z,23.23
2023-12-30T04:33:36.708Z,21.25
2023-12-30T04:36:04.299Z,28.45
2023-12-30T04:38:31.108Z,20.85
2023-12-30T04:40:57.895Z,25.85
2023-12-30T04:43:24.904Z,24.83
2023-12-30T04:45:51.955Z,23.23
2023-12-30T04:48:19.082Z,24.30
2023-12-30T04:50:45.929Z,24.70
2023-12-30T04:53:12.806Z,21.17
2023-12-30T04:55:39.832Z,23.03
2023-12-30T04:58:06.887Z,22.08
2023-12-30T05:00:34.647Z,24.48
2023-12-30T05:03:01.780Z,23.35
2023-12-30T05:05:29.173Z,23.67
2023-12-30T05:07:56.218Z,28.63
2023-12-30T05:10:23.295Z,20.00
2023-12-30T05:12:50.956Z,25.13
2023-12-30T05:15:18.149Z,28.10
2023-12-30T05:17:45.345Z,26.80
2023-12-30T05:20:13.925Z,27.37
2023-12-30T05:22:41.766Z,26.42
2023-12-30T05:25:09.348Z,26.10
2023-12-30T05:27:36.982Z,30.70
2023-12-30T05:30:05.564Z,27.60
2023-12-30T05:32:32.648Z,26.97
2023-12-30T05:35:00.591Z,27.63
2023-12-30T05:37:27.517Z,26.30
2023-12-30T05:39:55.147Z,26.58
2023-12-30T05:42:22.326Z,26.85
2023-12-30T05:44:49.306Z,30.37
2023-12-30T05:47:16.306Z,33.25
2023-12-30T05:49:43.159Z,28.45
2023-12-30T05:52:10.298Z,29.65
2023-12-30T05:54:37.331Z,28.50
2023-12-30T05:57:04.563Z,25.23
2023-12-30T05:59:31.466Z,31.77
2023-12-30T06:02:00.089Z,31.00
2023-12-30T06:04:27.335Z,32.28
2023-12-30T06:06:55.342Z,28.17
2023-12-30T06:09:22.497Z,28.43
2023-12-30T06:11:50.013Z,27.42
2023-12-30T06:14:17.268Z,28.60
2023-12-30T06:16:44.304Z,24.80
2023-12-30T06:19:12.884Z,23.70
2023-12-30T06:21:40.702Z,27.17
2023-12-30T06:24:07.743Z,28.25
2023-12-30T06:26:39.190Z,21.48
2023-12-30T06:29:07.835Z,28.67
2023-12-30T06:31:34.885Z,27.10
2023-12-30T06:34:01.989Z,25.10
2023-12-30T06:36:29.005Z,26.10
2023-12-30T06:38:56.029Z,24.02
2023-12-30T06:41:23.083Z,26.88
2023-12-30T06:43:50.162Z,29.45
2023-12-30T06:46:21.374Z,26.53
2023-12-30T06:48:48.573Z,23.58
2023-12-30T06:51:15.506Z,28.13
2023-12-30T06:53:42.485Z,29.75
2023-12-30T06:56:09.464Z,26.40
2023-12-30T06:58:37.118Z,19.87
2023-12-30T07:01:06.138Z,24.13
2023-12-30T07:03:33.544Z,28.65
2023-12-30T07:06:00.737Z,25.13
2023-12-30T07:08:27.864Z,22.33
2023-12-30T07:10:54.954Z,23.50
2023-12-30T07:13:22.067Z,22.48
2023-12-30T07:15:49.092Z,23.40
2023-12-30T07:18:16.387Z,28.55
2023-12-30T07:20:43.503Z,33.03
2023-12-30T07:23:10.560Z,34.67
2023-12-30T07:25:37.691Z,30.55
2023-12-30T07:28:04.938Z,35.97
2023-12-30T07:30:32.024Z,37.13
2023-12-30T07:32:59.310Z,31.10
2023-12-30T07:35:28.487Z,30.43
2023-12-30T07:37:55.348Z,39.00
2023-12-30T07:40:22.627Z,32.45
2023-12-30T07:42:49.494Z,31.90
2023-12-30T07:45:16.354Z,30.10
2023-12-30T07:47:43.369Z,33.03
2023-12-30T07:50:10.379Z,34.33
2023-12-30T07:52:37.494Z,34.45
2023-12-30T07:55:04.896Z,35.53
2023-12-30T07:57:31.935Z,38.22
2023-12-30T07:59:59.004Z,31.00
2023-12-30T08:02:25.869Z,30.77
2023-12-30T08:04:55.644Z,28.58
2023-12-30T08:07:22.983Z,26.85
2023-12-30T08:09:50.045Z,26.35
2023-12-30T08:12:17.050Z,28.47
2023-12-30T08:14:43.849Z,29.63
2023-12-30T08:17:10.720Z,36.53
2023-12-30T08:19:37.871Z,30.50
2023-12-30T08:22:04.910Z,32.75
2023-12-30T08:24:31.636Z,33.03
2023-12-30T08:26:58.511Z,31.10
2023-12-30T08:29:25.569Z,33.05
2023-12-30T08:31:52.389Z,29.67
2023-12-30T08:34:21.884Z,30.48
2023-12-30T08:36:48.774Z,33.73
2023-12-30T08:39:15.773Z,32.08
2023-12-30T08:41:42.783Z,29.15
2023-12-30T08:44:10.019Z,34.08
2023-12-30T08:46:37.653Z,33.20
2023-12-30T08:49:07.411Z,33.30
2023-12-30T08:51:36.121Z,30.33
2023-12-30T08:54:03.125Z,30.92
2023-12-30T08:56:34.567Z,34.25
2023-12-30T08:59:01.974Z,32.97
2023-12-30T09:01:28.968Z,32.63
2023-12-30T09:03:56.157Z,29.33
2023-12-30T09:06:23.208Z,31.02
2023-12-30T09:08:50.295Z,33.00
2023-12-30T09:11:20.778Z,30.23
2023-12-30T09:13:48.819Z,28.37
2023-12-30T09:16:15.732Z,30.90
2023-12-30T09:18:43.397Z,29.30
2023-12-30T09:21:10.800Z,28.95
2023-12-30T09:23:38.604Z,34.47
2023-12-30T09:26:05.856Z,31.77
2023-12-30T09:28:33.400Z,27.85
2023-12-30T09:31:00.963Z,27.85
2023-12-30T09:33:27.982Z,29.02
2023-12-30T09:35:56.040Z,29.95
2023-12-30T09:38:26.559Z,31.27
2023-12-30T09:40:55.402Z,30.67
2023-12-30T09:43:25.125Z,29.20
2023-12-30T09:45:52.970Z,31.08
2023-12-30T09:48:26.903Z,32.80
2023-12-30T09:50:59.918Z,36.63
2023-12-30T09:53:28.102Z,34.25
2023-12-30T09:55:55.268Z,29.83
2023-12-30T09:58:23.750Z,29.00
2023-12-30T10:00:51.198Z,27.02
2023-12-30T10:03:20.085Z,20.53
2023-12-30T10:05:48.512Z,22.48
2023-12-30T10:08:16.359Z,22.83
2023-12-30T10:10:54.735Z,24.35
2023-12-30T10:13:27.249Z,24.83
2023-12-30T10:15:56.429Z,26.83
2023-12-30T10:18:23.714Z,25.92
2023-12-30T10:20:50.821Z,25.58
2023-12-30T10:23:17.774Z,26.05
2023-12-30T10:25:46.930Z,24.85
2023-12-30T10:28:14.467Z,25.97
2023-12-30T10:30:41.649Z,27.38
2023-12-30T10:33:10.739Z,28.35
2023-12-30T10:35:42.377Z,24.50
2023-12-30T10:38:10.688Z,29.05
2023-12-30T10:40:37.685Z,32.43
2023-12-30T10:43:05.645Z,27.15
2023-12-30T10:45:32.648Z,29.65
2023-12-30T10:48:01.068Z,31.48
2023-12-30T10:50:28.815Z,31.10
2023-12-30T10:53:06.549Z,31.50
2023-12-30T10:55:34.807Z,27.10
2023-12-30T10:58:14.898Z,31.90
2023-12-30T11:00:43.921Z,27.92
2023-12-30T11:03:11.240Z,29.10
2023-12-30T11:06:06.130Z,25.23
2023-12-30T11:08:33.273Z,24.90
2023-12-30T11:11:03.768Z,24.42
2023-12-30T11:13:37.678Z,17.58
2023-12-30T11:16:15.347Z,11.68
2023-12-30T11:18:54.877Z,10.47
2023-12-30T11:21:37.653Z,8.73
2023-12-30T11:24:06.576Z,10.23
2023-12-30T11:26:35.357Z,8.80
2023-12-30T11:29:03.133Z,10.00
2023-12-30T11:31:35.256Z,8.50
2023-12-30T11:34:03.057Z,11.25
2023-12-30T11:36:30.361Z,22.70
2023-12-30T11:38:59.197Z,23.08
2023-12-30T11:41:27.462Z,16.27
2023-12-30T11:43:59.439Z,11.63
2023-12-30T11:46:29.810Z,8.77
2023-12-30T11:49:00.295Z,7.78
2023-12-30T11:51:31.742Z,7.28
2023-12-30T11:54:04.054Z,7.82
2023-12-30T11:56:31.273Z,7.73
2023-12-30T11:58:58.530Z,8.45
2023-12-30T12:01:25.693Z,24.13
2023-12-30T12:03:53.931Z,27.92
2023-12-30T12:06:20.901Z,28.90
2023-12-30T12:08:48.630Z,31.43
2023-12-30T12:11:15.537Z,21.90
2023-12-30T12:13:42.566Z,17.67
2023-12-30T12:16:09.854Z,10.25
2023-12-30T12:18:37.574Z,9.05
2023-12-30T12:21:12.548Z,8.70
2023-12-30T12:23:39.379Z,6.60
2023-12-30T12:26:08.111Z,5.68
2023-12-30T12:28:35.237Z,5.93
2023-12-30T12:31:03.295Z,8.80
2023-12-30T12:33:30.774Z,9.50
2023-12-30T12:35:57.662Z,8.32
2023-12-30T12:38:24.896Z,9.02
2023-12-30T12:40:52.507Z,6.72
2023-12-30T12:43:19.712Z,5.28
2023-12-30T12:45:46.512Z,6.40
2023-12-30T12:48:13.540Z,6.22
2023-12-30T12:50:40.702Z,6.50
2023-12-30T12:53:07.456Z,5.47
2023-12-30T12:55:34.334Z,5.13
2023-12-30T12:58:01.437Z,5.83
2023-12-30T13:00:28.491Z,5.45
2023-12-30T13:02:55.470Z,5.63
2023-12-30T13:05:23.688Z,7.25
2023-12-30T13:07:51.182Z,5.63
2023-12-30T13:10:37.581Z,4.97
2023-12-30T13:13:08.218Z,3.33
2023-12-30T13:15:36.027Z,3.50
2023-12-30T13:18:06.549Z,4.05
2023-12-30T13:20:33.699Z,3.70
2023-12-30T13:23:04.551Z,3.00
2023-12-30T13:25:31.891Z,2.60
2023-12-30T13:27:59.490Z,4.05
2023-12-30T13:30:26.443Z,5.10
2023-12-30T13:33:02.627Z,4.28
2023-12-30T13:35:39.965Z,4.77
2023-12-30T13:38:13.000Z,2.85
2023-12-30T13:40:42.244Z,4.85
2023-12-30T13:43:10.588Z,4.10
2023-12-30T13:45:48.137Z,2.80
2023-12-30T13:48:34.043Z,3.10
2023-12-30T13:51:03.077Z,2.45
2023-12-30T13:53:30.255Z,3.05
2023-12-30T13:55:59.274Z,1.80
2023-12-30T13:58:26.160Z,2.42
2023-12-30T14:00:53.213Z,2.30
2023-12-30T14:03:20.519Z,3.25
2023-12-30T14:05:48.918Z,3.03
2023-12-30T14:08:28.240Z,4.70
2023-12-30T14:10:55.610Z,4.53
2023-12-30T14:13:24.518Z,2.57
2023-12-30T14:15:52.820Z,3.05
2023-12-30T14:18:20.470Z,3.33
2023-12-30T14:20:48.092Z,4.38
2023-12-30T14:23:15.403Z,4.45
2023-12-30T14:25:42.459Z,3.57
2023-12-30T14:28:10.759Z,5.00
2023-12-30T14:30:39.826Z,2.45
2023-12-30T14:33:07.374Z,3.25
2023-12-30T14:35:34.649Z,3.13
2023-12-30T14:38:02.801Z,3.33
2023-12-30T14:40:30.039Z,4.47
2023-12-30T14:42:57.162Z,3.97
2023-12-30T14:45:24.243Z,3.53
2023-12-30T14:47:51.263Z,5.30
2023-12-30T14:50:18.647Z,3.83
2023-12-30T14:52:45.802Z,7.38
2023-12-30T14:55:12.851Z,4.07
2023-12-30T14:57:41.132Z,5.53
2023-12-30T15:00:15.482Z,6.43
2023-12-30T15:02:44.058Z,6.63
2023-12-30T15:05:15.292Z,7.78
2023-12-30T15:07:44.572Z,7.53
2023-12-30T15:10:14.947Z,7.82
2023-12-30T15:12:44.035Z,7.80
2023-12-30T15:15:12.814Z,11.37
2023-12-30T15:17:40.065Z,10.57
2023-12-30T15:20:09.578Z,16.85
2023-12-30T15:22:36.791Z,28.77
2023-12-30T15:25:04.003Z,35.10
2023-12-30T15:27:31.419Z,34.23
2023-12-30T15:29:58.553Z,40.90
2023-12-30T15:32:25.730Z,53.22
2023-12-30T15:34:52.668Z,43.97
2023-12-30T15:37:19.783Z,44.38
2023-12-30T15:39:46.824Z,38.13
2023-12-30T15:42:13.842Z,38.20
2023-12-30T15:44:41.032Z,43.67
2023-12-30T15:47:10.923Z,42.88
2023-12-30T15:49:43.127Z,37.58
2023-12-30T15:52:11.592Z,31.77
2023-12-30T15:54:39.663Z,31.55
2023-12-30T15:57:06.837Z,31.20
2023-12-30T15:59:33.957Z,44.58
2023-12-30T16:02:01.338Z,36.58
2023-12-30T16:04:28.380Z,28.27
2023-12-30T16:06:55.294Z,17.92
2023-12-30T16:09:22.410Z,15.85
2023-12-30T16:11:50.152Z,22.83
2023-12-30T16:14:17.044Z,23.95
2023-12-30T16:16:47.161Z,16.20
2023-12-30T16:19:19.791Z,20.88
2023-12-30T16:21:51.008Z,23.73
2023-12-30T16:24:18.683Z,32.80
2023-12-30T16:26:46.016Z,24.63
2023-12-30T16:29:13.070Z,23.20
2023-12-30T16:31:40.354Z,21.73
2023-12-30T16:34:07.639Z,25.13
2023-12-30T16:36:36.357Z,26.23
2023-12-30T16:39:03.644Z,21.63
2023-12-30T16:41:30.826Z,19.10
2023-12-30T16:43:58.831Z,13.95
2023-12-30T16:46:25.948Z,17.08
2023-12-30T16:48:52.971Z,15.18
2023-12-30T16:51:20.043Z,12.52
2023-12-30T16:53:47.067Z,12.80
2023-12-30T16:56:16.714Z,13.82
2023-12-30T16:58:43.560Z,23.05
2023-12-30T17:01:10.446Z,28.23
2023-12-30T17:03:37.198Z,24.15
2023-12-30T17:06:04.839Z,17.53
2023-12-30T17:08:31.971Z,21.15
2023-12-30T17:10:59.530Z,20.98
2023-12-30T17:13:34.898Z,21.52
2023-12-30T17:16:06.941Z,15.70
2023-12-30T17:18:33.807Z,13.37
2023-12-30T17:21:00.826Z,16.20
2023-12-30T17:23:27.904Z,12.18
2023-12-30T17:25:54.930Z,13.30
2023-12-30T17:28:21.712Z,17.40
2023-12-30T17:30:49.278Z,13.67
2023-12-30T17:33:16.481Z,13.27
2023-12-30T17:35:44.339Z,14.82
2023-12-30T17:38:11.287Z,11.27
2023-12-30T17:40:39.170Z,10.15
2023-12-30T17:43:06.667Z,11.43
2023-12-30T17:45:33.898Z,10.98
2023-12-30T17:48:00.971Z,9.27
2023-12-30T17:50:27.982Z,12.10
2023-12-30T17:52:54.769Z,16.20
2023-12-30T17:55:21.780Z,29.27
2023-12-30T17:57:48.902Z,22.65
2023-12-30T18:00:15.891Z,17.40
2023-12-30T18:02:43.791Z,15.75
2023-12-30T18:05:11.226Z,15.27
2023-12-30T18:07:38.337Z,16.77
2023-12-30T18:10:05.599Z,14.65
2023-12-30T18:12:32.605Z,12.65
2023-12-30T18:14:59.679Z,9.85
2023-12-30T18:17:28.863Z,11.68
2023-12-30T18:19:55.899Z,11.57
2023-12-30T18:22:23.038Z,13.05
2023-12-30T18:24:49.953Z,10.85
2023-12-30T18:27:16.719Z,12.60
2023-12-30T18:29:43.581Z,12.13
2023-12-30T18:32:11.859Z,9.87
2023-12-30T18:34:42.043Z,8.43
2023-12-30T18:37:08.978Z,16.05
2023-12-30T18:39:36.339Z,17.73
2023-12-30T18:42:03.601Z,18.88
2023-12-30T18:44:30.851Z,23.93
2023-12-30T18:46:58.788Z,21.30
2023-12-30T18:49:25.780Z,17.90
2023-12-30T18:51:52.640Z,11.00
2023-12-30T18:54:19.448Z,12.98
2023-12-30T18:56:47.127Z,15.97
2023-12-30T18:59:14.209Z,13.05
2023-12-30T19:01:46.319Z,15.40
2023-12-30T19:04:13.977Z,11.70
2023-12-30T19:06:40.974Z,13.85
2023-12-30T19:09:08.802Z,9.13
2023-12-30T19:11:36.332Z,10.80
2023-12-30T19:14:03.159Z,10.38
2023-12-30T19:16:30.110Z,7.70
2023-12-30T19:18:57.366Z,11.23
2023-12-30T19:21:24.428Z,11.10
2023-12-30T19:23:51.238Z,12.90
2023-12-30T19:26:18.102Z,10.60
2023-12-30T19:28:44.884Z,10.23
2023-12-30T19:31:14.594Z,11.15
2023-12-30T19:33:43.127Z,17.23
2023-12-30T19:36:11.496Z,22.63
2023-12-30T19:38:39.057Z,28.48
2023-12-30T19:41:06.161Z,27.35
2023-12-30T19:43:35.325Z,20.67
2023-12-30T19:46:06.885Z,25.37
2023-12-30T19:48:35.072Z,24.55
2023-12-30T19:51:04.897Z,19.10
2023-12-30T19:53:32.528Z,21.70
2023-12-30T19:55:59.253Z,18.90
2023-12-30T19:58:27.817Z,14.10
2023-12-30T20:00:54.964Z,21.45
2023-12-30T20:03:21.850Z,19.25
2023-12-30T20:05:48.819Z,21.48
2023-12-30T20:08:16.047Z,19.42
2023-12-30T20:10:44.092Z,24.07
2023-12-30T20:13:11.331Z,22.55
2023-12-30T20:15:38.544Z,22.67
2023-12-30T20:18:06.097Z,20.38
2023-12-30T20:20:33.189Z,20.92
2023-12-30T20:23:01.076Z,19.10
2023-12-30T20:25:31.004Z,21.40
2023-12-30T20:27:58.846Z,16.63
2023-12-30T20:30:27.540Z,16.45
2023-12-30T20:32:54.881Z,9.32
2023-12-30T20:35:22.058Z,10.20
2023-12-30T20:37:48.950Z,10.88
2023-12-30T20:40:16.507Z,8.60
2023-12-30T20:42:43.318Z,13.00
2023-12-30T20:45:11.224Z,11.25
2023-12-30T20:47:38.794Z,10.97
2023-12-30T20:50:06.193Z,12.13
2023-12-30T20:52:33.326Z,10.05
2023-12-30T20:55:04.353Z,10.77
2023-12-30T20:57:31.839Z,10.30
2023-12-30T20:59:58.832Z,10.17
2023-12-30T21:02:26.061Z,11.52
2023-12-30T21:04:55.470Z,12.45
2023-12-30T21:07:22.628Z,12.63
2023-12-30T21:09:49.798Z,13.40
2023-12-30T21:12:16.876Z,11.17
2023-12-30T21:14:43.902Z,11.80
2023-12-30T21:17:11.300Z,14.27
2023-12-30T21:19:38.460Z,15.57
2023-12-30T21:22:06.612Z,15.38
2023-12-30T21:24:33.726Z,16.97
2023-12-30T21:27:00.823Z,12.80
2023-12-30T21:29:27.887Z,9.95
2023-12-30T21:31:55.895Z,11.52
2023-12-30T21:34:23.105Z,11.00
2023-12-30T21:36:50.200Z,11.07
2023-12-30T21:39:18.527Z,9.50
2023-12-30T21:41:45.504Z,12.50
2023-12-30T21:44:12.399Z,9.30
2023-12-30T21:46:46.402Z,12.85
2023-12-30T21:49:15.892Z,9.27
2023-12-30T21:51:44.044Z,8.77
2023-12-30T21:54:11.492Z,10.43
2023-12-30T21:56:38.325Z,7.72
2023-12-30T21:59:05.304Z,7.22
2023-12-30T22:01:32.863Z,6.90
2023-12-30T22:03:59.910Z,8.88
2023-12-30T22:06:26.776Z,6.60
2023-12-30T22:08:53.963Z,6.85
2023-12-30T22:11:21.002Z,7.60
2023-12-30T22:13:48.150Z,8.13
2023-12-30T22:16:14.984Z,9.90
2023-12-30T22:18:42.111Z,11.82
2023-12-30T22:21:09.215Z,14.63
2023-12-30T22:23:37.347Z,9.35
2023-12-30T22:26:04.286Z,6.53
2023-12-30T22:28:31.301Z,11.02
2023-12-30T22:30:58.388Z,9.38
2023-12-30T22:33:26.126Z,7.03
2023-12-30T22:35:53.217Z,4.53
2023-12-30T22:38:20.293Z,4.47
2023-12-30T22:40:47.044Z,6.18
2023-12-30T22:43:13.887Z,5.00
2023-12-30T22:45:42.086Z,6.30
2023-12-30T22:48:09.224Z,5.18
2023-12-30T22:50:36.512Z,6.63
2023-12-30T22:53:04.065Z,5.55
2023-12-30T22:55:31.378Z,8.02
2023-12-30T22:57:58.368Z,6.55
2023-12-30T23:00:28.570Z,7.32
2023-12-30T23:02:56.217Z,7.33
2023-12-30T23:05:23.481Z,5.40
2023-12-30T23:07:50.499Z,8.02
2023-12-30T23:10:17.605Z,9.18
2023-12-30T23:12:44.938Z,7.70
2023-12-30T23:15:13.217Z,6.67
2023-12-30T23:17:39.970Z,8.40
2023-12-30T23:20:10.164Z,7.68
2023-12-30T23:22:37.009Z,8.07
2023-12-30T23:25:06.271Z,8.85
2023-12-30T23:27:33.926Z,7.33
2023-12-30T23:30:04.578Z,11.00
2023-12-30T23:32:33.881Z,9.18
2023-12-30T23:35:01.486Z,11.18
2023-12-30T23:37:28.503Z,10.50
2023-12-30T23:39:55.686Z,8.70
2023-12-30T23:42:22.680Z,7.15
2023-12-30T23:44:49.708Z,8.30
2023-12-30T23:47:16.680Z,6.82
2023-12-30T23:49:43.758Z,5.45
2023-12-30T23:52:10.933Z,8.17
2023-12-30T23:54:38.001Z,7.90
2023-12-30T23:57:05.284Z,6.47
2023-12-30T23:59:32.094Z,8.52
